sensor_id;sensor_type;location;lat;lon;timestamp;temperature;humidity
8591;DHT22;4333;48.322;14.340;2023-10-19T00:00:40;7.50;99.90
8591;DHT22;4333;48.322;14.340;2023-10-19T00:03:06;7.50;99.90
8591;DHT22;4333;48.322;14.340;2023-10-19T00:05:33;7.50;99.90
8591;DHT22;4333;48.322;14.340;2023-10-19T00:08:03;7.60;99.90
8591;DHT22;4333;48.322;14.340;2023-10-19T00:10:38;7.60;99.90
8591;DHT22;4333;48.322;14.340;2023-10-19T00:13:05;7.50;99.90
8591;DHT22;4333;48.322;14.340;2023-10-19T00:15:32;7.50;99.90
8591;DHT22;4333;48.322;14.340;2023-10-19T00:18:10;7.40;99.90
8591;DHT22;4333;48.322;14.340;2023-10-19T00:20:46;7.30;99.90
8591;DHT22;4333;48.322;14.340;2023-10-19T00:23:21;7.20;99.90
8591;DHT22;4333;48.322;14.340;2023-10-19T00:25:55;7.20;99.90
8591;DHT22;4333;48.322;14.340;2023-10-19T00:28:21;7.20;99.90
8591;DHT22;4333;48.322;14.340;2023-10-19T00:30:48;7.20;99.90
8591;DHT22;4333;48.322;14.340;2023-10-19T00:33:20;7.20;99.90
8591;DHT22;4333;48.322;14.340;2023-10-19T00:35:47;7.20;99.90
8591;DHT22;4333;48.322;14.340;2023-10-19T00:38:24;7.10;99.90
8591;DHT22;4333;48.322;14.340;2023-10-19T00:40:55;7.10;99.90
8591;DHT22;4333;48.322;14.340;2023-10-19T00:43:29;7.00;99.90
8591;DHT22;4333;48.322;14.340;2023-10-19T00:46:02;7.00;99.90
8591;DHT22;4333;48.322;14.340;2023-10-19T00:48:42;6.90;99.90
8591;DHT22;4333;48.322;14.340;2023-10-19T00:51:12;6.90;99.90
8591;DHT22;4333;48.322;14.340;2023-10-19T00:54:13;6.80;99.90
8591;DHT22;4333;48.322;14.340;2023-10-19T00:56:45;6.80;99.90
8591;DHT22;4333;48.322;14.340;2023-10-19T00:59:19;6.80;99.90
8591;DHT22;4333;48.322;14.340;2023-10-19T01:01:53;6.80;99.90
8591;DHT22;4333;48.322;14.340;2023-10-19T01:04:37;6.90;99.90
8591;DHT22;4333;48.322;14.340;2023-10-19T01:07:11;6.90;99.90
8591;DHT22;4333;48.322;14.340;2023-10-19T01:09:50;6.90;99.90
8591;DHT22;4333;48.322;14.340;2023-10-19T01:12:19;6.80;99.90
8591;DHT22;4333;48.322;14.340;2023-10-19T01:15:10;6.70;99.90
8591;DHT22;4333;48.322;14.340;2023-10-19T01:17:44;6.70;99.90
8591;DHT22;4333;48.322;14.340;2023-10-19T01:20:20;6.50;99.90
8591;DHT22;4333;48.322;14.340;2023-10-19T01:23:07;6.50;99.90
8591;DHT22;4333;48.322;14.340;2023-10-19T01:25:52;6.50;99.90
8591;DHT22;4333;48.322;14.340;2023-10-19T01:28:31;6.50;99.90
8591;DHT22;4333;48.322;14.340;2023-10-19T01:31:21;6.50;99.90
8591;DHT22;4333;48.322;14.340;2023-10-19T01:33:56;6.50;99.90
8591;DHT22;4333;48.322;14.340;2023-10-19T01:36:30;6.60;99.90
8591;DHT22;4333;48.322;14.340;2023-10-19T01:39:01;6.60;99.90
8591;DHT22;4333;48.322;14.340;2023-10-19T01:41:28;6.70;99.90
8591;DHT22;4333;48.322;14.340;2023-10-19T01:43:56;6.70;99.90
8591;DHT22;4333;48.322;14.340;2023-10-19T01:46:34;6.70;99.90
8591;DHT22;4333;48.322;14.340;2023-10-19T01:49:02;6.80;99.90
8591;DHT22;4333;48.322;14.340;2023-10-19T01:51:30;6.80;99.90
8591;DHT22;4333;48.322;14.340;2023-10-19T01:53:59;6.80;99.90
8591;DHT22;4333;48.322;14.340;2023-10-19T01:56:26;6.90;99.90
8591;DHT22;4333;48.322;14.340;2023-10-19T01:58:54;6.90;99.90
8591;DHT22;4333;48.322;14.340;2023-10-19T02:01:20;7.00;99.90
8591;DHT22;4333;48.322;14.340;2023-10-19T02:03:55;7.00;99.90
8591;DHT22;4333;48.322;14.340;2023-10-19T02:06:28;7.00;99.90
8591;DHT22;4333;48.322;14.340;2023-10-19T02:11:34;6.90;99.90
8591;DHT22;4333;48.322;14.340;2023-10-19T02:14:03;6.90;99.90
8591;DHT22;4333;48.322;14.340;2023-10-19T02:16:30;6.90;99.90
8591;DHT22;4333;48.322;14.340;2023-10-19T02:18:58;6.80;99.90
8591;DHT22;4333;48.322;14.340;2023-10-19T02:21:23;6.80;99.90
8591;DHT22;4333;48.322;14.340;2023-10-19T02:24:03;6.70;99.90
8591;DHT22;4333;48.322;14.340;2023-10-19T02:26:30;6.80;99.90
8591;DHT22;4333;48.322;14.340;2023-10-19T02:28:59;6.70;99.90
8591;DHT22;4333;48.322;14.340;2023-10-19T02:31:25;6.60;99.90
8591;DHT22;4333;48.322;14.340;2023-10-19T02:33:53;6.50;99.90
8591;DHT22;4333;48.322;14.340;2023-10-19T02:36:26;6.50;99.90
8591;DHT22;4333;48.322;14.340;2023-10-19T02:39:01;6.50;99.90
8591;DHT22;4333;48.322;14.340;2023-10-19T02:41:33;6.40;99.90
8591;DHT22;4333;48.322;14.340;2023-10-19T02:44:03;6.30;99.90
8591;DHT22;4333;48.322;14.340;2023-10-19T02:46:30;6.30;99.90
8591;DHT22;4333;48.322;14.340;2023-10-19T02:49:02;6.20;99.90
8591;DHT22;4333;48.322;14.340;2023-10-19T02:51:32;6.10;99.90
8591;DHT22;4333;48.322;14.340;2023-10-19T02:53:57;6.00;99.90
8591;DHT22;4333;48.322;14.340;2023-10-19T02:56:30;6.00;99.90
8591;DHT22;4333;48.322;14.340;2023-10-19T02:58:56;5.90;99.90
8591;DHT22;4333;48.322;14.340;2023-10-19T03:01:29;5.90;99.90
8591;DHT22;4333;48.322;14.340;2023-10-19T03:03:59;6.00;99.90
8591;DHT22;4333;48.322;14.340;2023-10-19T03:06:27;6.00;99.90
8591;DHT22;4333;48.322;14.340;2023-10-19T03:09:05;6.00;99.90
8591;DHT22;4333;48.322;14.340;2023-10-19T03:11:42;6.00;99.90
8591;DHT22;4333;48.322;14.340;2023-10-19T03:14:10;5.90;99.90
8591;DHT22;4333;48.322;14.340;2023-10-19T03:16:39;5.90;99.90
8591;DHT22;4333;48.322;14.340;2023-10-19T03:19:10;5.80;99.90
8591;DHT22;4333;48.322;14.340;2023-10-19T03:21:54;5.90;99.90
8591;DHT22;4333;48.322;14.340;2023-10-19T03:24:21;5.90;99.90
8591;DHT22;4333;48.322;14.340;2023-10-19T03:27:10;5.90;99.90
8591;DHT22;4333;48.322;14.340;2023-10-19T03:29:49;5.80;99.90
8591;DHT22;4333;48.322;14.340;2023-10-19T03:32:23;5.80;99.90
8591;DHT22;4333;48.322;14.340;2023-10-19T03:34:58;5.80;99.90
8591;DHT22;4333;48.322;14.340;2023-10-19T03:37:29;5.70;99.90
8591;DHT22;4333;48.322;14.340;2023-10-19T03:39:55;5.70;99.90
8591;DHT22;4333;48.322;14.340;2023-10-19T03:42:21;5.70;99.90
8591;DHT22;4333;48.322;14.340;2023-10-19T03:44:51;5.60;99.90
8591;DHT22;4333;48.322;14.340;2023-10-19T03:47:17;5.60;99.90
8591;DHT22;4333;48.322;14.340;2023-10-19T03:49:49;5.60;99.90
8591;DHT22;4333;48.322;14.340;2023-10-19T03:52:17;5.60;99.90
8591;DHT22;4333;48.322;14.340;2023-10-19T03:54:43;5.60;99.90
8591;DHT22;4333;48.322;14.340;2023-10-19T03:57:11;5.60;99.90
8591;DHT22;4333;48.322;14.340;2023-10-19T03:59:55;5.60;99.90
8591;DHT22;4333;48.322;14.340;2023-10-19T04:02:29;5.60;99.90
8591;DHT22;4333;48.322;14.340;2023-10-19T04:05:00;5.60;99.90
8591;DHT22;4333;48.322;14.340;2023-10-19T04:07:29;5.60;99.90
8591;DHT22;4333;48.322;14.340;2023-10-19T04:09:57;5.50;99.90
8591;DHT22;4333;48.322;14.340;2023-10-19T04:12:32;5.50;99.90
8591;DHT22;4333;48.322;14.340;2023-10-19T04:15:01;5.50;99.90
8591;DHT22;4333;48.322;14.340;2023-10-19T04:17:45;5.50;99.90
8591;DHT22;4333;48.322;14.340;2023-10-19T04:20:15;5.40;99.90
8591;DHT22;4333;48.322;14.340;2023-10-19T04:22:45;5.30;99.90
8591;DHT22;4333;48.322;14.340;2023-10-19T04:25:11;5.30;99.90
8591;DHT22;4333;48.322;14.340;2023-10-19T04:27:44;5.20;99.90
8591;DHT22;4333;48.322;14.340;2023-10-19T04:30:14;5.20;99.90
8591;DHT22;4333;48.322;14.340;2023-10-19T04:32:52;5.20;99.90
8591;DHT22;4333;48.322;14.340;2023-10-19T04:35:19;5.20;99.90
8591;DHT22;4333;48.322;14.340;2023-10-19T04:37:54;5.30;99.90
8591;DHT22;4333;48.322;14.340;2023-10-19T04:40:20;5.20;99.90
8591;DHT22;4333;48.322;14.340;2023-10-19T04:42:47;5.10;99.90
8591;DHT22;4333;48.322;14.340;2023-10-19T04:45:13;5.10;99.90
8591;DHT22;4333;48.322;14.340;2023-10-19T04:47:40;5.10;99.90
8591;DHT22;4333;48.322;14.340;2023-10-19T04:50:08;5.10;99.90
8591;DHT22;4333;48.322;14.340;2023-10-19T04:52:37;5.20;99.90
8591;DHT22;4333;48.322;14.340;2023-10-19T04:55:03;5.20;99.90
8591;DHT22;4333;48.322;14.340;2023-10-19T04:57:33;5.20;99.90
8591;DHT22;4333;48.322;14.340;2023-10-19T04:59:59;5.20;99.90
8591;DHT22;4333;48.322;14.340;2023-10-19T05:02:28;5.20;99.90
8591;DHT22;4333;48.322;14.340;2023-10-19T05:04:55;5.20;99.90
8591;DHT22;4333;48.322;14.340;2023-10-19T05:07:23;5.20;99.90
8591;DHT22;4333;48.322;14.340;2023-10-19T05:09:49;5.20;99.90
8591;DHT22;4333;48.322;14.340;2023-10-19T05:12:15;5.20;99.90
8591;DHT22;4333;48.322;14.340;2023-10-19T05:14:42;5.20;99.90
8591;DHT22;4333;48.322;14.340;2023-10-19T05:17:08;5.20;99.90
8591;DHT22;4333;48.322;14.340;2023-10-19T05:19:38;5.20;99.90
8591;DHT22;4333;48.322;14.340;2023-10-19T05:22:08;5.20;99.90
8591;DHT22;4333;48.322;14.340;2023-10-19T05:24:36;5.20;99.90
8591;DHT22;4333;48.322;14.340;2023-10-19T05:27:04;5.20;99.90
8591;DHT22;4333;48.322;14.340;2023-10-19T05:29:32;5.30;99.90
8591;DHT22;4333;48.322;14.340;2023-10-19T05:31:58;5.40;99.90
8591;DHT22;4333;48.322;14.340;2023-10-19T05:34:24;5.40;99.90
8591;DHT22;4333;48.322;14.340;2023-10-19T05:36:52;5.40;99.90
8591;DHT22;4333;48.322;14.340;2023-10-19T05:39:19;5.50;99.90
8591;DHT22;4333;48.322;14.340;2023-10-19T05:41:55;5.50;99.90
8591;DHT22;4333;48.322;14.340;2023-10-19T05:44:22;5.60;99.90
8591;DHT22;4333;48.322;14.340;2023-10-19T05:46:50;5.60;99.90
8591;DHT22;4333;48.322;14.340;2023-10-19T05:49:16;5.70;99.90
8591;DHT22;4333;48.322;14.340;2023-10-19T05:51:43;5.60;99.90
8591;DHT22;4333;48.322;14.340;2023-10-19T05:54:12;5.60;99.90
8591;DHT22;4333;48.322;14.340;2023-10-19T05:56:38;5.70;99.90
8591;DHT22;4333;48.322;14.340;2023-10-19T05:59:04;5.80;99.90
8591;DHT22;4333;48.322;14.340;2023-10-19T06:01:31;5.80;99.90
8591;DHT22;4333;48.322;14.340;2023-10-19T06:03:57;5.90;99.90
8591;DHT22;4333;48.322;14.340;2023-10-19T06:06:23;6.00;99.90
8591;DHT22;4333;48.322;14.340;2023-10-19T06:08:51;6.10;99.90
8591;DHT22;4333;48.322;14.340;2023-10-19T06:11:21;6.20;99.90
8591;DHT22;4333;48.322;14.340;2023-10-19T06:13:47;6.20;99.90
8591;DHT22;4333;48.322;14.340;2023-10-19T06:16:13;6.20;99.90
8591;DHT22;4333;48.322;14.340;2023-10-19T06:18:40;6.30;99.90
8591;DHT22;4333;48.322;14.340;2023-10-19T06:21:07;6.30;99.90
8591;DHT22;4333;48.322;14.340;2023-10-19T06:23:33;6.30;99.90
8591;DHT22;4333;48.322;14.340;2023-10-19T06:25:59;6.40;99.90
8591;DHT22;4333;48.322;14.340;2023-10-19T06:28:29;6.50;99.90
8591;DHT22;4333;48.322;14.340;2023-10-19T06:30:59;6.60;99.90
8591;DHT22;4333;48.322;14.340;2023-10-19T06:33:25;6.60;99.90
8591;DHT22;4333;48.322;14.340;2023-10-19T06:35:50;6.70;99.90
8591;DHT22;4333;48.322;14.340;2023-10-19T06:38:16;6.90;99.90
8591;DHT22;4333;48.322;14.340;2023-10-19T06:40:42;7.00;99.90
8591;DHT22;4333;48.322;14.340;2023-10-19T06:43:10;7.10;99.90
8591;DHT22;4333;48.322;14.340;2023-10-19T06:45:37;7.20;99.90
8591;DHT22;4333;48.322;14.340;2023-10-19T06:48:05;7.30;99.90
8591;DHT22;4333;48.322;14.340;2023-10-19T06:50:32;7.50;99.90
8591;DHT22;4333;48.322;14.340;2023-10-19T06:53:01;7.60;99.90
8591;DHT22;4333;48.322;14.340;2023-10-19T06:55:30;7.60;99.90
8591;DHT22;4333;48.322;14.340;2023-10-19T06:57:56;7.80;99.90
8591;DHT22;4333;48.322;14.340;2023-10-19T07:00:23;8.00;99.90
8591;DHT22;4333;48.322;14.340;2023-10-19T07:02:52;8.10;99.90
8591;DHT22;4333;48.322;14.340;2023-10-19T07:05:19;8.40;99.90
8591;DHT22;4333;48.322;14.340;2023-10-19T07:07:50;8.80;99.90
8591;DHT22;4333;48.322;14.340;2023-10-19T07:10:18;9.10;99.90
8591;DHT22;4333;48.322;14.340;2023-10-19T07:12:45;9.50;99.90
8591;DHT22;4333;48.322;14.340;2023-10-19T07:15:12;9.90;99.90
8591;DHT22;4333;48.322;14.340;2023-10-19T07:17:46;10.40;99.90
8591;DHT22;4333;48.322;14.340;2023-10-19T07:20:16;10.60;99.90
8591;DHT22;4333;48.322;14.340;2023-10-19T07:22:59;11.10;99.90
8591;DHT22;4333;48.322;14.340;2023-10-19T07:25:46;11.60;99.90
8591;DHT22;4333;48.322;14.340;2023-10-19T07:28:14;11.90;99.90
8591;DHT22;4333;48.322;14.340;2023-10-19T07:30:44;11.70;99.90
8591;DHT22;4333;48.322;14.340;2023-10-19T07:33:12;11.30;99.90
8591;DHT22;4333;48.322;14.340;2023-10-19T07:35:51;10.90;99.90
8591;DHT22;4333;48.322;14.340;2023-10-19T07:38:23;10.70;99.90
8591;DHT22;4333;48.322;14.340;2023-10-19T07:40:49;10.90;99.90
8591;DHT22;4333;48.322;14.340;2023-10-19T07:43:18;11.00;99.90
8591;DHT22;4333;48.322;14.340;2023-10-19T07:45:45;11.00;99.90
8591;DHT22;4333;48.322;14.340;2023-10-19T07:48:14;10.90;99.90
8591;DHT22;4333;48.322;14.340;2023-10-19T07:50:40;10.80;99.90
8591;DHT22;4333;48.322;14.340;2023-10-19T07:53:06;10.70;99.90
8591;DHT22;4333;48.322;14.340;2023-10-19T07:55:33;10.60;99.90
8591;DHT22;4333;48.322;14.340;2023-10-19T07:57:59;10.30;99.90
8591;DHT22;4333;48.322;14.340;2023-10-19T08:00:32;10.20;99.90
8591;DHT22;4333;48.322;14.340;2023-10-19T08:03:01;9.80;99.90
8591;DHT22;4333;48.322;14.340;2023-10-19T08:05:29;9.70;99.90
8591;DHT22;4333;48.322;14.340;2023-10-19T08:07:56;9.50;99.90
8591;DHT22;4333;48.322;14.340;2023-10-19T08:10:24;9.50;99.90
8591;DHT22;4333;48.322;14.340;2023-10-19T08:12:54;9.60;99.90
8591;DHT22;4333;48.322;14.340;2023-10-19T08:15:21;9.70;99.90
8591;DHT22;4333;48.322;14.340;2023-10-19T08:17:50;9.80;99.90
8591;DHT22;4333;48.322;14.340;2023-10-19T08:20:19;9.90;99.90
8591;DHT22;4333;48.322;14.340;2023-10-19T08:22:58;10.00;99.90
8591;DHT22;4333;48.322;14.340;2023-10-19T08:25:25;9.90;99.90
8591;DHT22;4333;48.322;14.340;2023-10-19T08:27:56;9.80;99.90
8591;DHT22;4333;48.322;14.340;2023-10-19T08:30:23;9.80;99.90
8591;DHT22;4333;48.322;14.340;2023-10-19T08:32:54;9.70;99.90
8591;DHT22;4333;48.322;14.340;2023-10-19T08:35:22;9.70;99.90
8591;DHT22;4333;48.322;14.340;2023-10-19T08:37:51;9.90;99.90
8591;DHT22;4333;48.322;14.340;2023-10-19T08:40:19;10.10;99.90
8591;DHT22;4333;48.322;14.340;2023-10-19T08:42:45;10.40;99.90
8591;DHT22;4333;48.322;14.340;2023-10-19T08:45:12;10.80;99.90
8591;DHT22;4333;48.322;14.340;2023-10-19T08:48:01;11.00;99.90
8591;DHT22;4333;48.322;14.340;2023-10-19T08:50:34;11.30;99.90
8591;DHT22;4333;48.322;14.340;2023-10-19T08:53:02;11.50;96.70
8591;DHT22;4333;48.322;14.340;2023-10-19T08:55:31;11.60;94.90
8591;DHT22;4333;48.322;14.340;2023-10-19T08:58:00;11.50;93.70
8591;DHT22;4333;48.322;14.340;2023-10-19T09:00:26;11.40;96.20
8591;DHT22;4333;48.322;14.340;2023-10-19T09:02:55;11.30;94.00
8591;DHT22;4333;48.322;14.340;2023-10-19T09:05:25;11.30;94.50
8591;DHT22;4333;48.322;14.340;2023-10-19T09:07:57;11.20;98.80
8591;DHT22;4333;48.322;14.340;2023-10-19T09:10:27;11.30;99.90
8591;DHT22;4333;48.322;14.340;2023-10-19T09:13:08;11.60;99.90
8591;DHT22;4333;48.322;14.340;2023-10-19T09:15:36;11.30;96.10
8591;DHT22;4333;48.322;14.340;2023-10-19T09:18:21;11.20;99.60
8591;DHT22;4333;48.322;14.340;2023-10-19T09:20:51;11.50;99.80
8591;DHT22;4333;48.322;14.340;2023-10-19T09:23:24;11.70;93.40
8591;DHT22;4333;48.322;14.340;2023-10-19T09:25:56;11.50;91.50
8591;DHT22;4333;48.322;14.340;2023-10-19T09:28:23;11.40;93.10
8591;DHT22;4333;48.322;14.340;2023-10-19T09:30:50;11.60;92.40
8591;DHT22;4333;48.322;14.340;2023-10-19T09:33:17;11.50;86.70
8591;DHT22;4333;48.322;14.340;2023-10-19T09:35:50;11.40;87.60
8591;DHT22;4333;48.322;14.340;2023-10-19T09:38:19;11.10;91.70
8591;DHT22;4333;48.322;14.340;2023-10-19T09:40:49;10.80;94.20
8591;DHT22;4333;48.322;14.340;2023-10-19T09:43:19;10.60;96.50
8591;DHT22;4333;48.322;14.340;2023-10-19T09:45:51;10.80;97.70
8591;DHT22;4333;48.322;14.340;2023-10-19T09:48:21;10.70;98.20
8591;DHT22;4333;48.322;14.340;2023-10-19T09:50:53;10.90;98.40
8591;DHT22;4333;48.322;14.340;2023-10-19T09:53:25;10.80;97.40
8591;DHT22;4333;48.322;14.340;2023-10-19T09:55:56;11.00;99.90
8591;DHT22;4333;48.322;14.340;2023-10-19T09:58:35;11.20;99.90
8591;DHT22;4333;48.322;14.340;2023-10-19T10:01:03;11.30;99.90
8591;DHT22;4333;48.322;14.340;2023-10-19T10:06:12;11.10;95.80
8591;DHT22;4333;48.322;14.340;2023-10-19T10:08:41;11.10;99.90
8591;DHT22;4333;48.322;14.340;2023-10-19T10:11:27;11.20;99.90
8591;DHT22;4333;48.322;14.340;2023-10-19T10:13:54;11.30;99.90
8591;DHT22;4333;48.322;14.340;2023-10-19T10:16:27;11.30;99.90
8591;DHT22;4333;48.322;14.340;2023-10-19T10:18:56;11.30;99.90
8591;DHT22;4333;48.322;14.340;2023-10-19T10:21:26;11.60;99.90
8591;DHT22;4333;48.322;14.340;2023-10-19T10:23:55;11.80;99.90
8591;DHT22;4333;48.322;14.340;2023-10-19T10:26:25;12.00;95.80
8591;DHT22;4333;48.322;14.340;2023-10-19T10:29:11;12.00;90.90
8591;DHT22;4333;48.322;14.340;2023-10-19T10:31:47;12.30;94.20
8591;DHT22;4333;48.322;14.340;2023-10-19T10:39:31;12.10;86.60
8591;DHT22;4333;48.322;14.340;2023-10-19T10:42:04;12.00;93.60
8591;DHT22;4333;48.322;14.340;2023-10-19T10:44:41;11.90;93.50
8591;DHT22;4333;48.322;14.340;2023-10-19T10:47:12;12.00;94.50
8591;DHT22;4333;48.322;14.340;2023-10-19T10:49:57;12.00;93.60
8591;DHT22;4333;48.322;14.340;2023-10-19T10:52:33;12.10;91.40
8591;DHT22;4333;48.322;14.340;2023-10-19T10:55:07;12.20;91.70
8591;DHT22;4333;48.322;14.340;2023-10-19T10:57:34;12.30;91.20
8591;DHT22;4333;48.322;14.340;2023-10-19T11:00:07;12.40;91.40
8591;DHT22;4333;48.322;14.340;2023-10-19T11:02:37;12.40;88.90
8591;DHT22;4333;48.322;14.340;2023-10-19T11:05:23;12.50;89.30
8591;DHT22;4333;48.322;14.340;2023-10-19T11:08:08;12.60;92.20
8591;DHT22;4333;48.322;14.340;2023-10-19T11:10:35;12.70;90.90
8591;DHT22;4333;48.322;14.340;2023-10-19T11:13:10;12.80;87.30
8591;DHT22;4333;48.322;14.340;2023-10-19T11:15:37;12.80;88.00
8591;DHT22;4333;48.322;14.340;2023-10-19T11:18:04;12.80;86.40
8591;DHT22;4333;48.322;14.340;2023-10-19T11:20:33;12.80;82.90
8591;DHT22;4333;48.322;14.340;2023-10-19T11:22:58;12.80;84.40
8591;DHT22;4333;48.322;14.340;2023-10-19T11:25:29;12.80;84.30
8591;DHT22;4333;48.322;14.340;2023-10-19T11:27:58;12.80;82.00
8591;DHT22;4333;48.322;14.340;2023-10-19T11:30:29;12.80;80.20
8591;DHT22;4333;48.322;14.340;2023-10-19T11:32:59;12.70;82.00
8591;DHT22;4333;48.322;14.340;2023-10-19T11:35:29;12.50;85.20
8591;DHT22;4333;48.322;14.340;2023-10-19T11:37:57;12.40;89.30
8591;DHT22;4333;48.322;14.340;2023-10-19T11:40:24;12.50;90.00
8591;DHT22;4333;48.322;14.340;2023-10-19T11:42:51;12.60;91.10
8591;DHT22;4333;48.322;14.340;2023-10-19T11:45:18;12.70;91.90
8591;DHT22;4333;48.322;14.340;2023-10-19T11:47:44;12.90;87.80
8591;DHT22;4333;48.322;14.340;2023-10-19T11:50:11;12.90;90.20
8591;DHT22;4333;48.322;14.340;2023-10-19T11:52:45;12.90;86.60
8591;DHT22;4333;48.322;14.340;2023-10-19T11:55:15;13.00;90.00
8591;DHT22;4333;48.322;14.340;2023-10-19T11:57:45;13.20;90.60
8591;DHT22;4333;48.322;14.340;2023-10-19T12:00:12;13.50;89.80
8591;DHT22;4333;48.322;14.340;2023-10-19T12:03:01;14.00;87.00
8591;DHT22;4333;48.322;14.340;2023-10-19T12:05:27;14.40;80.10
8591;DHT22;4333;48.322;14.340;2023-10-19T12:07:52;14.00;71.00
8591;DHT22;4333;48.322;14.340;2023-10-19T12:10:18;13.60;78.00
8591;DHT22;4333;48.322;14.340;2023-10-19T12:12:46;13.30;82.10
8591;DHT22;4333;48.322;14.340;2023-10-19T12:15:13;13.40;84.00
8591;DHT22;4333;48.322;14.340;2023-10-19T12:17:38;13.50;85.00
8591;DHT22;4333;48.322;14.340;2023-10-19T12:20:07;13.60;82.90
8591;DHT22;4333;48.322;14.340;2023-10-19T12:22:33;13.50;77.60
8591;DHT22;4333;48.322;14.340;2023-10-19T12:25:06;13.20;80.10
8591;DHT22;4333;48.322;14.340;2023-10-19T12:27:32;13.10;83.80
8591;DHT22;4333;48.322;14.340;2023-10-19T12:29:59;13.10;83.90
8591;DHT22;4333;48.322;14.340;2023-10-19T12:32:30;13.00;86.60
8591;DHT22;4333;48.322;14.340;2023-10-19T12:34:56;12.90;87.60
8591;DHT22;4333;48.322;14.340;2023-10-19T12:37:23;12.70;90.30
8591;DHT22;4333;48.322;14.340;2023-10-19T12:39:50;12.80;90.60
8591;DHT22;4333;48.322;14.340;2023-10-19T12:42:17;13.00;90.10
8591;DHT22;4333;48.322;14.340;2023-10-19T12:44:44;13.10;87.90
8591;DHT22;4333;48.322;14.340;2023-10-19T12:47:13;13.20;84.10
8591;DHT22;4333;48.322;14.340;2023-10-19T12:49:42;13.40;83.40
8591;DHT22;4333;48.322;14.340;2023-10-19T12:52:11;13.70;79.10
8591;DHT22;4333;48.322;14.340;2023-10-19T12:54:38;13.80;72.90
8591;DHT22;4333;48.322;14.340;2023-10-19T12:57:05;13.80;72.60
8591;DHT22;4333;48.322;14.340;2023-10-19T12:59:34;14.10;71.40
8591;DHT22;4333;48.322;14.340;2023-10-19T13:02:02;14.70;72.40
8591;DHT22;4333;48.322;14.340;2023-10-19T13:04:28;15.10;62.70
8591;DHT22;4333;48.322;14.340;2023-10-19T13:06:57;15.30;60.20
8591;DHT22;4333;48.322;14.340;2023-10-19T13:09:26;15.80;60.70
8591;DHT22;4333;48.322;14.340;2023-10-19T13:11:58;15.80;56.20
8591;DHT22;4333;48.322;14.340;2023-10-19T13:14:29;15.70;55.10
8591;DHT22;4333;48.322;14.340;2023-10-19T13:16:55;15.70;58.30
8591;DHT22;4333;48.322;14.340;2023-10-19T13:19:22;15.80;58.70
8591;DHT22;4333;48.322;14.340;2023-10-19T13:21:51;16.10;56.90
8591;DHT22;4333;48.322;14.340;2023-10-19T13:24:19;15.80;57.80
8591;DHT22;4333;48.322;14.340;2023-10-19T13:26:47;15.60;59.80
8591;DHT22;4333;48.322;14.340;2023-10-19T13:29:13;15.40;64.10
8591;DHT22;4333;48.322;14.340;2023-10-19T13:31:52;14.90;62.70
8591;DHT22;4333;48.322;14.340;2023-10-19T13:34:20;14.50;67.80
8591;DHT22;4333;48.322;14.340;2023-10-19T13:36:46;14.70;71.40
8591;DHT22;4333;48.322;14.340;2023-10-19T13:39:13;14.80;66.40
8591;DHT22;4333;48.322;14.340;2023-10-19T13:41:51;15.10;68.40
8591;DHT22;4333;48.322;14.340;2023-10-19T13:44:19;15.20;59.50
8591;DHT22;4333;48.322;14.340;2023-10-19T13:46:49;15.40;58.10
8591;DHT22;4333;48.322;14.340;2023-10-19T13:49:21;15.20;58.00
8591;DHT22;4333;48.322;14.340;2023-10-19T13:51:48;15.00;57.00
8591;DHT22;4333;48.322;14.340;2023-10-19T13:54:16;14.80;59.70
8591;DHT22;4333;48.322;14.340;2023-10-19T13:56:42;14.60;62.80
8591;DHT22;4333;48.322;14.340;2023-10-19T13:59:09;14.90;63.80
8591;DHT22;4333;48.322;14.340;2023-10-19T14:01:38;14.90;60.10
8591;DHT22;4333;48.322;14.340;2023-10-19T14:04:05;14.80;63.60
8591;DHT22;4333;48.322;14.340;2023-10-19T14:06:32;14.90;62.80
8591;DHT22;4333;48.322;14.340;2023-10-19T14:08:58;15.00;60.40
8591;DHT22;4333;48.322;14.340;2023-10-19T14:11:27;14.90;59.90
8591;DHT22;4333;48.322;14.340;2023-10-19T14:14:00;15.00;60.50
8591;DHT22;4333;48.322;14.340;2023-10-19T14:16:28;14.90;59.80
8591;DHT22;4333;48.322;14.340;2023-10-19T14:18:58;15.00;58.80
8591;DHT22;4333;48.322;14.340;2023-10-19T14:21:24;15.00;56.00
8591;DHT22;4333;48.322;14.340;2023-10-19T14:24:03;15.20;54.80
8591;DHT22;4333;48.322;14.340;2023-10-19T14:26:33;15.50;53.00
8591;DHT22;4333;48.322;14.340;2023-10-19T14:29:04;15.50;49.90
8591;DHT22;4333;48.322;14.340;2023-10-19T14:31:31;15.50;47.90
8591;DHT22;4333;48.322;14.340;2023-10-19T14:34:05;15.30;53.20
8591;DHT22;4333;48.322;14.340;2023-10-19T14:36:33;15.10;56.60
8591;DHT22;4333;48.322;14.340;2023-10-19T14:39:02;15.40;57.50
8591;DHT22;4333;48.322;14.340;2023-10-19T14:41:31;15.80;59.30
8591;DHT22;4333;48.322;14.340;2023-10-19T14:43:59;16.00;54.70
8591;DHT22;4333;48.322;14.340;2023-10-19T14:46:28;16.30;52.90
8591;DHT22;4333;48.322;14.340;2023-10-19T14:48:59;16.40;51.30
8591;DHT22;4333;48.322;14.340;2023-10-19T14:51:27;16.50;50.40
8591;DHT22;4333;48.322;14.340;2023-10-19T14:53:58;16.50;48.10
8591;DHT22;4333;48.322;14.340;2023-10-19T14:56:26;16.50;48.00
8591;DHT22;4333;48.322;14.340;2023-10-19T14:58:53;16.50;48.10
8591;DHT22;4333;48.322;14.340;2023-10-19T15:01:23;16.40;51.50
8591;DHT22;4333;48.322;14.340;2023-10-19T15:03:54;16.50;48.50
8591;DHT22;4333;48.322;14.340;2023-10-19T15:06:20;16.40;46.50
8591;DHT22;4333;48.322;14.340;2023-10-19T15:08:48;16.40;49.90
8591;DHT22;4333;48.322;14.340;2023-10-19T15:11:17;16.40;48.40
8591;DHT22;4333;48.322;14.340;2023-10-19T15:13:48;16.30;47.40
8591;DHT22;4333;48.322;14.340;2023-10-19T15:16:16;16.20;49.70
8591;DHT22;4333;48.322;14.340;2023-10-19T15:18:44;16.00;52.00
8591;DHT22;4333;48.322;14.340;2023-10-19T15:21:13;15.70;54.50
8591;DHT22;4333;48.322;14.340;2023-10-19T15:23:39;15.40;60.30
8591;DHT22;4333;48.322;14.340;2023-10-19T15:26:08;14.90;75.20
8591;DHT22;4333;48.322;14.340;2023-10-19T15:28:33;14.60;82.10
8591;DHT22;4333;48.322;14.340;2023-10-19T15:31:01;14.50;88.40
8591;DHT22;4333;48.322;14.340;2023-10-19T15:33:27;14.30;92.40
8591;DHT22;4333;48.322;14.340;2023-10-19T15:35:54;14.20;92.50
8591;DHT22;4333;48.322;14.340;2023-10-19T15:38:21;14.00;93.20
8591;DHT22;4333;48.322;14.340;2023-10-19T15:40:52;13.80;98.30
8591;DHT22;4333;48.322;14.340;2023-10-19T15:43:23;13.50;99.90
8591;DHT22;4333;48.322;14.340;2023-10-19T15:45:59;13.10;99.90
8591;DHT22;4333;48.322;14.340;2023-10-19T15:48:30;12.80;99.90
8591;DHT22;4333;48.322;14.340;2023-10-19T15:51:02;12.80;99.90
8591;DHT22;4333;48.322;14.340;2023-10-19T15:53:35;12.90;99.90
8591;DHT22;4333;48.322;14.340;2023-10-19T15:56:02;12.80;99.90
8591;DHT22;4333;48.322;14.340;2023-10-19T15:58:28;12.70;99.90
8591;DHT22;4333;48.322;14.340;2023-10-19T16:00:54;12.70;99.90
8591;DHT22;4333;48.322;14.340;2023-10-19T16:03:20;12.50;99.90
8591;DHT22;4333;48.322;14.340;2023-10-19T16:05:46;12.30;99.90
8591;DHT22;4333;48.322;14.340;2023-10-19T16:08:13;12.10;99.90
8591;DHT22;4333;48.322;14.340;2023-10-19T16:10:38;12.10;99.90
8591;DHT22;4333;48.322;14.340;2023-10-19T16:13:04;12.20;99.90
8591;DHT22;4333;48.322;14.340;2023-10-19T16:15:30;12.30;99.90
8591;DHT22;4333;48.322;14.340;2023-10-19T16:17:58;12.10;99.90
8591;DHT22;4333;48.322;14.340;2023-10-19T16:20:27;12.00;99.90